sensor_id;sensor_type;location;lat;lon;timestamp;pressure;altitude;pressure_sealevel;temperature;humidity
54808;BME280;40708;50.364;7.550;2023-02-21T00:02:35;101122.56;;;4.81;100.00
54808;BME280;40708;50.364;7.550;2023-02-21T00:05:19;101124.25;;;4.79;100.00
54808;BME280;40708;50.364;7.550;2023-02-21T00:08:03;101128.59;;;4.79;100.00
54808;BME280;40708;50.364;7.550;2023-02-21T00:10:47;101129.16;;;4.70;100.00
54808;BME280;40708;50.364;7.550;2023-02-21T00:13:35;101128.09;;;4.64;100.00
54808;BME280;40708;50.364;7.550;2023-02-21T00:16:19;101128.88;;;4.61;100.00
54808;BME280;40708;50.364;7.550;2023-02-21T00:19:03;101128.75;;;4.58;100.00
54808;BME280;40708;50.364;7.550;2023-02-21T00:21:47;101132.00;;;4.51;100.00
54808;BME280;40708;50.364;7.550;2023-02-21T00:24:31;101138.03;;;4.49;100.00
54808;BME280;40708;50.364;7.550;2023-02-21T00:27:14;101130.16;;;4.49;100.00
54808;BME280;40708;50.364;7.550;2023-02-21T00:29:58;101142.56;;;4.53;100.00
54808;BME280;40708;50.364;7.550;2023-02-21T00:32:42;101133.44;;;4.43;100.00
54808;BME280;40708;50.364;7.550;2023-02-21T00:35:26;101136.88;;;4.41;100.00
54808;BME280;40708;50.364;7.550;2023-02-21T00:38:10;101123.47;;;4.33;100.00
54808;BME280;40708;50.364;7.550;2023-02-21T00:40:54;101120.72;;;4.30;100.00
54808;BME280;40708;50.364;7.550;2023-02-21T00:43:38;101122.06;;;4.19;100.00
54808;BME280;40708;50.364;7.550;2023-02-21T00:46:22;101126.41;;;4.18;100.00
54808;BME280;40708;50.364;7.550;2023-02-21T00:49:07;101122.81;;;4.15;100.00
54808;BME280;40708;50.364;7.550;2023-02-21T00:51:51;101122.81;;;4.15;100.00
54808;BME280;40708;50.364;7.550;2023-02-21T00:54:35;101125.25;;;4.10;100.00
54808;BME280;40708;50.364;7.550;2023-02-21T00:57:20;101134.91;;;4.11;100.00
54808;BME280;40708;50.364;7.550;2023-02-21T01:00:06;101130.34;;;4.06;100.00
54808;BME280;40708;50.364;7.550;2023-02-21T01:02:50;101130.41;;;4.07;100.00
54808;BME280;40708;50.364;7.550;2023-02-21T01:05:34;101125.81;;;4.02;100.00
54808;BME280;40708;50.364;7.550;2023-02-21T01:08:18;101123.19;;;4.02;100.00
54808;BME280;40708;50.364;7.550;2023-02-21T01:11:02;101131.00;;;4.00;100.00
54808;BME280;40708;50.364;7.550;2023-02-21T01:13:46;101127.66;;;4.04;100.00
54808;BME280;40708;50.364;7.550;2023-02-21T01:16:31;101124.97;;;4.03;100.00
54808;BME280;40708;50.364;7.550;2023-02-21T01:19:15;101125.88;;;4.03;100.00
54808;BME280;40708;50.364;7.550;2023-02-21T01:22:02;101129.16;;;3.98;100.00
54808;BME280;40708;50.364;7.550;2023-02-21T01:24:48;101138.47;;;3.90;100.00
54808;BME280;40708;50.364;7.550;2023-02-21T01:27:32;101144.66;;;3.92;100.00
54808;BME280;40708;50.364;7.550;2023-02-21T01:30:15;101142.41;;;3.79;100.00
54808;BME280;40708;50.364;7.550;2023-02-21T01:32:59;101132.53;;;3.94;100.00
54808;BME280;40708;50.364;7.550;2023-02-21T01:35:43;101142.28;;;3.98;100.00
54808;BME280;40708;50.364;7.550;2023-02-21T01:38:27;101135.03;;;3.91;100.00
54808;BME280;40708;50.364;7.550;2023-02-21T01:41:11;101133.09;;;3.87;100.00
54808;BME280;40708;50.364;7.550;2023-02-21T01:46:40;101136.28;;;3.78;100.00
54808;BME280;40708;50.364;7.550;2023-02-21T01:49:24;101126.66;;;3.79;100.00
54808;BME280;40708;50.364;7.550;2023-02-21T01:52:08;101118.69;;;3.76;100.00
54808;BME280;40708;50.364;7.550;2023-02-21T01:54:53;101112.38;;;3.71;100.00
54808;BME280;40708;50.364;7.550;2023-02-21T01:57:38;101125.66;;;3.75;100.00
54808;BME280;40708;50.364;7.550;2023-02-21T02:00:22;101126.38;;;3.71;100.00
54808;BME280;40708;50.364;7.550;2023-02-21T02:03:09;101130.06;;;3.76;100.00
54808;BME280;40708;50.364;7.550;2023-02-21T02:06:02;101119.03;;;3.85;100.00
54808;BME280;40708;50.364;7.550;2023-02-21T02:08:46;101119.47;;;3.97;100.00
54808;BME280;40708;50.364;7.550;2023-02-21T02:11:37;101128.44;;;4.02;100.00
54808;BME280;40708;50.364;7.550;2023-02-21T02:17:23;101123.63;;;4.14;100.00
54808;BME280;40708;50.364;7.550;2023-02-21T02:23:25;101113.69;;;4.29;100.00
54808;BME280;40708;50.364;7.550;2023-02-21T02:26:25;101116.59;;;4.37;100.00
54808;BME280;40708;50.364;7.550;2023-02-21T02:29:29;101120.63;;;4.51;100.00
54808;BME280;40708;50.364;7.550;2023-02-21T02:35:12;101114.97;;;4.65;100.00
54808;BME280;40708;50.364;7.550;2023-02-21T02:40:51;101104.09;;;4.80;100.00
54808;BME280;40708;50.364;7.550;2023-02-21T02:43:30;101102.78;;;4.93;100.00
54808;BME280;40708;50.364;7.550;2023-02-21T02:46:05;101106.44;;;4.98;100.00
54808;BME280;40708;50.364;7.550;2023-02-21T02:48:46;101103.31;;;5.08;100.00
54808;BME280;40708;50.364;7.550;2023-02-21T02:51:14;101098.19;;;5.12;100.00
54808;BME280;40708;50.364;7.550;2023-02-21T02:53:40;101090.41;;;5.17;100.00
54808;BME280;40708;50.364;7.550;2023-02-21T02:56:15;101088.78;;;5.20;100.00
54808;BME280;40708;50.364;7.550;2023-02-21T02:58:49;101099.34;;;5.22;100.00
54808;BME280;40708;50.364;7.550;2023-02-21T03:07:00;101085.59;;;5.02;100.00
54808;BME280;40708;50.364;7.550;2023-02-21T03:09:51;101075.84;;;5.00;100.00
54808;BME280;40708;50.364;7.550;2023-02-21T03:12:28;101086.03;;;4.89;100.00
54808;BME280;40708;50.364;7.550;2023-02-21T03:15:08;101077.81;;;4.80;100.00
54808;BME280;40708;50.364;7.550;2023-02-21T03:17:39;101075.78;;;4.71;100.00
54808;BME280;40708;50.364;7.550;2023-02-21T03:20:09;101075.56;;;4.65;100.00
54808;BME280;40708;50.364;7.550;2023-02-21T03:22:35;101071.78;;;4.57;100.00
54808;BME280;40708;50.364;7.550;2023-02-21T03:25:01;101066.91;;;4.43;100.00
54808;BME280;40708;50.364;7.550;2023-02-21T03:27:28;101069.25;;;4.35;100.00
54808;BME280;40708;50.364;7.550;2023-02-21T03:29:57;101076.97;;;4.31;100.00
54808;BME280;40708;50.364;7.550;2023-02-21T03:32:28;101078.19;;;4.16;100.00
54808;BME280;40708;50.364;7.550;2023-02-21T03:34:55;101075.19;;;4.06;100.00
54808;BME280;40708;50.364;7.550;2023-02-21T03:40:05;101076.28;;;3.89;100.00
54808;BME280;40708;50.364;7.550;2023-02-21T03:42:30;101073.59;;;3.86;100.00
54808;BME280;40708;50.364;7.550;2023-02-21T03:44:55;101081.22;;;3.80;100.00
54808;BME280;40708;50.364;7.550;2023-02-21T03:47:21;101081.91;;;3.74;100.00
54808;BME280;40708;50.364;7.550;2023-02-21T03:49:46;101082.47;;;3.67;100.00
54808;BME280;40708;50.364;7.550;2023-02-21T03:52:11;101086.75;;;3.64;100.00
54808;BME280;40708;50.364;7.550;2023-02-21T03:54:38;101102.41;;;3.62;100.00
54808;BME280;40708;50.364;7.550;2023-02-21T03:57:03;101091.88;;;3.60;100.00
54808;BME280;40708;50.364;7.550;2023-02-21T03:59:29;101098.28;;;3.69;100.00
54808;BME280;40708;50.364;7.550;2023-02-21T04:01:54;101096.03;;;3.78;100.00
54808;BME280;40708;50.364;7.550;2023-02-21T04:04:19;101095.78;;;3.94;100.00
54808;BME280;40708;50.364;7.550;2023-02-21T04:06:44;101094.91;;;3.95;100.00
54808;BME280;40708;50.364;7.550;2023-02-21T04:09:10;101102.56;;;3.89;100.00
54808;BME280;40708;50.364;7.550;2023-02-21T04:11:35;101094.78;;;3.92;100.00
54808;BME280;40708;50.364;7.550;2023-02-21T04:14:00;101101.44;;;3.82;100.00
54808;BME280;40708;50.364;7.550;2023-02-21T04:16:25;101092.50;;;3.77;100.00
54808;BME280;40708;50.364;7.550;2023-02-21T04:18:51;101088.16;;;3.78;100.00
54808;BME280;40708;50.364;7.550;2023-02-21T04:21:17;101083.63;;;3.74;100.00
54808;BME280;40708;50.364;7.550;2023-02-21T04:23:42;101087.97;;;3.73;100.00
54808;BME280;40708;50.364;7.550;2023-02-21T04:26:07;101091.53;;;3.75;100.00
54808;BME280;40708;50.364;7.550;2023-02-21T04:28:33;101089.66;;;3.71;100.00
54808;BME280;40708;50.364;7.550;2023-02-21T04:30:58;101077.22;;;3.67;100.00
54808;BME280;40708;50.364;7.550;2023-02-21T04:33:23;101084.69;;;3.56;100.00
54808;BME280;40708;50.364;7.550;2023-02-21T04:35:48;101075.75;;;3.51;100.00
54808;BME280;40708;50.364;7.550;2023-02-21T04:38:15;101080.84;;;3.47;100.00
54808;BME280;40708;50.364;7.550;2023-02-21T04:40:40;101084.47;;;3.50;100.00
54808;BME280;40708;50.364;7.550;2023-02-21T04:43:05;101073.66;;;3.43;100.00
54808;BME280;40708;50.364;7.550;2023-02-21T04:45:31;101078.25;;;3.48;100.00
54808;BME280;40708;50.364;7.550;2023-02-21T04:47:56;101075.44;;;3.42;100.00
54808;BME280;40708;50.364;7.550;2023-02-21T04:50:21;101071.66;;;3.36;100.00
54808;BME280;40708;50.364;7.550;2023-02-21T04:52:47;101060.88;;;3.28;100.00
54808;BME280;40708;50.364;7.550;2023-02-21T04:55:13;101064.28;;;3.26;100.00
54808;BME280;40708;50.364;7.550;2023-02-21T04:57:38;101058.81;;;3.21;100.00
54808;BME280;40708;50.364;7.550;2023-02-21T05:00:04;101062.22;;;3.19;100.00
54808;BME280;40708;50.364;7.550;2023-02-21T05:02:31;101067.22;;;3.13;100.00
54808;BME280;40708;50.364;7.550;2023-02-21T05:04:56;101074.34;;;3.15;100.00
54808;BME280;40708;50.364;7.550;2023-02-21T05:07:21;101082.19;;;3.15;100.00
54808;BME280;40708;50.364;7.550;2023-02-21T05:09:47;101074.88;;;3.07;100.00
54808;BME280;40708;50.364;7.550;2023-02-21T05:12:12;101068.53;;;3.02;100.00
54808;BME280;40708;50.364;7.550;2023-02-21T05:14:38;101066.88;;;3.04;100.00
54808;BME280;40708;50.364;7.550;2023-02-21T05:17:04;101073.00;;;3.04;100.00
54808;BME280;40708;50.364;7.550;2023-02-21T05:19:30;101075.63;;;3.04;100.00
54808;BME280;40708;50.364;7.550;2023-02-21T05:21:56;101078.19;;;3.03;100.00
54808;BME280;40708;50.364;7.550;2023-02-21T05:24:23;101083.28;;;2.99;100.00
54808;BME280;40708;50.364;7.550;2023-02-21T05:26:49;101074.44;;;2.96;100.00
54808;BME280;40708;50.364;7.550;2023-02-21T05:29:14;101077.91;;;2.96;100.00
54808;BME280;40708;50.364;7.550;2023-02-21T05:31:40;101081.53;;;2.98;100.00
54808;BME280;40708;50.364;7.550;2023-02-21T05:34:05;101088.53;;;2.99;100.00
54808;BME280;40708;50.364;7.550;2023-02-21T05:36:30;101088.63;;;3.01;100.00
54808;BME280;40708;50.364;7.550;2023-02-21T05:38:56;101082.72;;;3.07;100.00
54808;BME280;40708;50.364;7.550;2023-02-21T05:41:21;101085.22;;;3.04;100.00
54808;BME280;40708;50.364;7.550;2023-02-21T05:43:48;101086.00;;;3.01;100.00
54808;BME280;40708;50.364;7.550;2023-02-21T05:46:33;101087.72;;;3.00;100.00
54808;BME280;40708;50.364;7.550;2023-02-21T05:49:00;101087.44;;;2.94;100.00
54808;BME280;40708;50.364;7.550;2023-02-21T05:51:26;101087.41;;;2.93;100.00
54808;BME280;40708;50.364;7.550;2023-02-21T05:53:52;101087.41;;;2.93;100.00
54808;BME280;40708;50.364;7.550;2023-02-21T05:56:19;101087.53;;;2.96;100.00
54808;BME280;40708;50.364;7.550;2023-02-21T05:58:45;101093.41;;;2.90;100.00
54808;BME280;40708;50.364;7.550;2023-02-21T06:01:10;101094.41;;;2.94;100.00
54808;BME280;40708;50.364;7.550;2023-02-21T06:03:35;101088.19;;;2.90;100.00
54808;BME280;40708;50.364;7.550;2023-02-21T06:06:01;101096.22;;;2.95;100.00
54808;BME280;40708;50.364;7.550;2023-02-21T06:08:26;101102.53;;;3.00;100.00
54808;BME280;40708;50.364;7.550;2023-02-21T06:10:51;101100.88;;;3.02;100.00
54808;BME280;40708;50.364;7.550;2023-02-21T06:13:17;101098.19;;;3.00;100.00
54808;BME280;40708;50.364;7.550;2023-02-21T06:15:42;101097.88;;;2.93;100.00
54808;BME280;40708;50.364;7.550;2023-02-21T06:18:07;101094.38;;;2.92;100.00
54808;BME280;40708;50.364;7.550;2023-02-21T06:20:32;101096.91;;;2.91;100.00
54808;BME280;40708;50.364;7.550;2023-02-21T06:22:58;101097.75;;;2.90;100.00
54808;BME280;40708;50.364;7.550;2023-02-21T06:25:23;101092.38;;;2.87;100.00
54808;BME280;40708;50.364;7.550;2023-02-21T06:27:48;101097.69;;;2.88;100.00
54808;BME280;40708;50.364;7.550;2023-02-21T06:30:14;101096.03;;;2.90;100.00
54808;BME280;40708;50.364;7.550;2023-02-21T06:32:40;101101.41;;;2.93;100.00
54808;BME280;40708;50.364;7.550;2023-02-21T06:35:06;101106.53;;;2.90;100.00
54808;BME280;40708;50.364;7.550;2023-02-21T06:37:31;101104.47;;;2.83;100.00
54808;BME280;40708;50.364;7.550;2023-02-21T06:39:57;101097.44;;;2.82;100.00
54808;BME280;40708;50.364;7.550;2023-02-21T06:42:22;101102.78;;;2.85;100.00
54808;BME280;40708;50.364;7.550;2023-02-21T06:44:47;101101.19;;;2.89;100.00
54808;BME280;40708;50.364;7.550;2023-02-21T06:47:14;101110.28;;;2.97;100.00
54808;BME280;40708;50.364;7.550;2023-02-21T06:49:39;101102.19;;;3.13;100.00
54808;BME280;40708;50.364;7.550;2023-02-21T06:52:05;101091.97;;;3.19;100.00
54808;BME280;40708;50.364;7.550;2023-02-21T06:54:31;101097.09;;;3.38;100.00
54808;BME280;40708;50.364;7.550;2023-02-21T06:56:56;101089.53;;;3.46;100.00
54808;BME280;40708;50.364;7.550;2023-02-21T06:59:23;101084.22;;;3.67;100.00
54808;BME280;40708;50.364;7.550;2023-02-21T07:01:48;101081.66;;;3.92;100.00
54808;BME280;40708;50.364;7.550;2023-02-21T07:04:13;101077.81;;;4.06;100.00
54808;BME280;40708;50.364;7.550;2023-02-21T07:06:38;101076.44;;;4.41;100.00
54808;BME280;40708;50.364;7.550;2023-02-21T07:09:04;101083.63;;;4.70;100.00
54808;BME280;40708;50.364;7.550;2023-02-21T07:11:30;101060.13;;;5.01;100.00
54808;BME280;40708;50.364;7.550;2023-02-21T07:13:57;101047.09;;;5.32;100.00
54808;BME280;40708;50.364;7.550;2023-02-21T07:16:23;101042.91;;;5.67;100.00
54808;BME280;40708;50.364;7.550;2023-02-21T07:18:49;101021.69;;;5.92;100.00
54808;BME280;40708;50.364;7.550;2023-02-21T07:21:15;101012.69;;;6.16;100.00
54808;BME280;40708;50.364;7.550;2023-02-21T07:23:45;100999.25;;;6.38;100.00
54808;BME280;40708;50.364;7.550;2023-02-21T07:26:12;100987.16;;;6.46;100.00
54808;BME280;40708;50.364;7.550;2023-02-21T07:28:37;100978.97;;;6.70;100.00
54808;BME280;40708;50.364;7.550;2023-02-21T07:31:03;100962.81;;;6.93;100.00
54808;BME280;40708;50.364;7.550;2023-02-21T07:33:28;100970.41;;;7.17;100.00
54808;BME280;40708;50.364;7.550;2023-02-21T07:35:54;100960.34;;;7.40;100.00
54808;BME280;40708;50.364;7.550;2023-02-21T07:38:24;100954.72;;;7.63;100.00
54808;BME280;40708;50.364;7.550;2023-02-21T07:40:50;100953.97;;;8.17;100.00
54808;BME280;40708;50.364;7.550;2023-02-21T07:43:15;100942.16;;;7.98;100.00
54808;BME280;40708;50.364;7.550;2023-02-21T07:45:40;100936.50;;;8.25;100.00
54808;BME280;40708;50.364;7.550;2023-02-21T07:48:06;100936.44;;;8.73;100.00
54808;BME280;40708;50.364;7.550;2023-02-21T07:50:31;100943.03;;;9.01;100.00
54808;BME280;40708;50.364;7.550;2023-02-21T07:52:56;100939.91;;;8.70;100.00
54808;BME280;40708;50.364;7.550;2023-02-21T07:55:24;100938.38;;;8.83;100.00
54808;BME280;40708;50.364;7.550;2023-02-21T07:57:49;100934.00;;;9.48;100.00
54808;BME280;40708;50.364;7.550;2023-02-21T08:00:15;100935.75;;;9.47;100.00
54808;BME280;40708;50.364;7.550;2023-02-21T08:02:40;100926.72;;;9.33;100.00
54808;BME280;40708;50.364;7.550;2023-02-21T08:05:07;100922.59;;;9.55;100.00
54808;BME280;40708;50.364;7.550;2023-02-21T08:07:32;100935.09;;;8.99;100.00
54808;BME280;40708;50.364;7.550;2023-02-21T08:09:57;100923.91;;;9.18;100.00
54808;BME280;40708;50.364;7.550;2023-02-21T08:12:23;100935.00;;;8.93;100.00
54808;BME280;40708;50.364;7.550;2023-02-21T08:14:48;100922.50;;;9.49;100.00
54808;BME280;40708;50.364;7.550;2023-02-21T08:17:13;100919.63;;;9.32;100.00
54808;BME280;40708;50.364;7.550;2023-02-21T08:19:39;100923.28;;;9.37;100.00
54808;BME280;40708;50.364;7.550;2023-02-21T08:22:04;100915.88;;;9.86;100.00
54808;BME280;40708;50.364;7.550;2023-02-21T08:24:30;100912.31;;;9.82;100.00
54808;BME280;40708;50.364;7.550;2023-02-21T08:26:55;100903.66;;;10.03;100.00
54808;BME280;40708;50.364;7.550;2023-02-21T08:29:20;100909.72;;;9.88;100.00
54808;BME280;40708;50.364;7.550;2023-02-21T08:31:46;100906.00;;;9.70;100.00
54808;BME280;40708;50.364;7.550;2023-02-21T08:34:11;100914.84;;;9.72;100.00
54808;BME280;40708;50.364;7.550;2023-02-21T08:36:40;100899.03;;;9.78;100.00
54808;BME280;40708;50.364;7.550;2023-02-21T08:39:07;100901.13;;;10.10;100.00
54808;BME280;40708;50.364;7.550;2023-02-21T08:41:41;100901.50;;;10.51;100.00
54808;BME280;40708;50.364;7.550;2023-02-21T08:44:11;100891.75;;;10.50;100.00
54808;BME280;40708;50.364;7.550;2023-02-21T08:46:36;100885.97;;;11.15;100.00
54808;BME280;40708;50.364;7.550;2023-02-21T08:49:04;100885.69;;;10.66;100.00
54808;BME280;40708;50.364;7.550;2023-02-21T08:51:30;100880.53;;;10.89;100.00
54808;BME280;40708;50.364;7.550;2023-02-21T08:53:57;100884.97;;;10.89;100.00
54808;BME280;40708;50.364;7.550;2023-02-21T08:56:23;100870.13;;;11.27;100.00
54808;BME280;40708;50.364;7.550;2023-02-21T08:58:49;100872.91;;;11.57;100.00
54808;BME280;40708;50.364;7.550;2023-02-21T09:01:15;100865.84;;;11.65;100.00
54808;BME280;40708;50.364;7.550;2023-02-21T09:03:41;100865.03;;;11.81;100.00
54808;BME280;40708;50.364;7.550;2023-02-21T09:06:06;100858.84;;;12.02;100.00
54808;BME280;40708;50.364;7.550;2023-02-21T09:08:31;100854.41;;;12.40;100.00
54808;BME280;40708;50.364;7.550;2023-02-21T09:10:57;100854.41;;;12.34;100.00
54808;BME280;40708;50.364;7.550;2023-02-21T09:13:26;100853.50;;;11.96;100.00
54808;BME280;40708;50.364;7.550;2023-02-21T09:15:53;100853.50;;;11.91;100.00
54808;BME280;40708;50.364;7.550;2023-02-21T09:18:18;100849.97;;;12.54;100.00
54808;BME280;40708;50.364;7.550;2023-02-21T09:20:43;100850.75;;;12.97;100.00
54808;BME280;40708;50.364;7.550;2023-02-21T09:23:09;100840.00;;;13.34;100.00
54808;BME280;40708;50.364;7.550;2023-02-21T09:25:35;100829.91;;;13.90;100.00
54808;BME280;40708;50.364;7.550;2023-02-21T09:28:00;100837.00;;;13.93;100.00
54808;BME280;40708;50.364;7.550;2023-02-21T09:30:26;100840.00;;;13.35;100.00
54808;BME280;40708;50.364;7.550;2023-02-21T09:32:55;100843.66;;;13.08;100.00
54808;BME280;40708;50.364;7.550;2023-02-21T09:35:21;100838.03;;;13.72;100.00
54808;BME280;40708;50.364;7.550;2023-02-21T09:37:47;100842.31;;;13.94;100.00
54808;BME280;40708;50.364;7.550;2023-02-21T09:42:43;100836.22;;;13.76;100.00
54808;BME280;40708;50.364;7.550;2023-02-21T09:45:18;100837.09;;;13.79;100.00
54808;BME280;40708;50.364;7.550;2023-02-21T09:47:48;100831.91;;;13.52;100.00
54808;BME280;40708;50.364;7.550;2023-02-21T09:50:17;100834.66;;;13.38;100.00
54808;BME280;40708;50.364;7.550;2023-02-21T09:52:45;100827.53;;;13.40;100.00
54808;BME280;40708;50.364;7.550;2023-02-21T09:57:53;100829.34;;;14.57;100.00
54808;BME280;40708;50.364;7.550;2023-02-21T10:00:32;100828.53;;;14.53;100.00
54808;BME280;40708;50.364;7.550;2023-02-21T10:08:42;100822.78;;;14.89;100.00
54808;BME280;40708;50.364;7.550;2023-02-21T10:14:26;100814.47;;;15.15;100.00
54808;BME280;40708;50.364;7.550;2023-02-21T10:17:05;100814.84;;;15.55;100.00
54808;BME280;40708;50.364;7.550;2023-02-21T10:19:42;100802.09;;;16.29;100.00
54808;BME280;40708;50.364;7.550;2023-02-21T10:22:24;100810.94;;;16.34;100.00
54808;BME280;40708;50.364;7.550;2023-02-21T10:24:51;100810.78;;;15.91;100.00
54808;BME280;40708;50.364;7.550;2023-02-21T10:27:20;100808.03;;;15.94;100.00
54808;BME280;40708;50.364;7.550;2023-02-21T10:29:59;100807.88;;;16.04;100.00
54808;BME280;40708;50.364;7.550;2023-02-21T10:32:25;100816.09;;;15.28;100.00
54808;BME280;40708;50.364;7.550;2023-02-21T10:34:52;100822.56;;;15.11;100.00
54808;BME280;40708;50.364;7.550;2023-02-21T10:37:45;100805.09;;;16.11;100.00
54808;BME280;40708;50.364;7.550;2023-02-21T10:40:28;100800.16;;;16.38;100.00
54808;BME280;40708;50.364;7.550;2023-02-21T10:43:00;100810.69;;;15.95;100.00
54808;BME280;40708;50.364;7.550;2023-02-21T10:45:33;100808.53;;;15.62;100.00
54808;BME280;40708;50.364;7.550;2023-02-21T10:48:03;100804.84;;;15.71;100.00
54808;BME280;40708;50.364;7.550;2023-02-21T10:53:33;100804.28;;;15.47;100.00
54808;BME280;40708;50.364;7.550;2023-02-21T10:58:39;100801.84;;;15.29;100.00
54808;BME280;40708;50.364;7.550;2023-02-21T11:01:14;100796.34;;;15.40;100.00
54808;BME280;40708;50.364;7.550;2023-02-21T11:03:48;100791.00;;;15.38;100.00
54808;BME280;40708;50.364;7.550;2023-02-21T11:06:24;100786.81;;;15.82;100.00
54808;BME280;40708;50.364;7.550;2023-02-21T11:08:51;100790.47;;;15.12;100.00
54808;BME280;40708;50.364;7.550;2023-02-21T11:11:30;100788.00;;;14.96;100.00
54808;BME280;40708;50.364;7.550;2023-02-21T11:14:23;100776.22;;;15.12;100.00
54808;BME280;40708;50.364;7.550;2023-02-21T11:19:53;100778.69;;;15.25;100.00
54808;BME280;40708;50.364;7.550;2023-02-21T11:22:22;100775.59;;;14.90;100.00
54808;BME280;40708;50.364;7.550;2023-02-21T11:25:00;100762.63;;;15.28;100.00
54808;BME280;40708;50.364;7.550;2023-02-21T11:27:30;100759.88;;;15.34;100.00
54808;BME280;40708;50.364;7.550;2023-02-21T11:29:56;100754.66;;;15.86;100.00
54808;BME280;40708;50.364;7.550;2023-02-21T11:32:33;100749.53;;;15.73;100.00
54808;BME280;40708;50.364;7.550;2023-02-21T11:35:01;100739.94;;;15.60;100.00
54808;BME280;40708;50.364;7.550;2023-02-21T11:37:27;100738.34;;;14.78;100.00
54808;BME280;40708;50.364;7.550;2023-02-21T11:39:53;100732.22;;;14.68;100.00
54808;BME280;40708;50.364;7.550;2023-02-21T11:42:24;100738.66;;;14.51;100.00
54808;BME280;40708;50.364;7.550;2023-02-21T11:45:09;100720.84;;;14.51;100.00
54808;BME280;40708;50.364;7.550;2023-02-21T11:47:42;100710.78;;;14.74;100.00
54808;BME280;40708;50.364;7.550;2023-02-21T11:50:24;100716.31;;;14.59;100.00
54808;BME280;40708;50.364;7.550;2023-02-21T11:53:00;100709.28;;;14.54;100.00
54808;BME280;40708;50.364;7.550;2023-02-21T11:55:28;100709.16;;;14.63;100.00
54808;BME280;40708;50.364;7.550;2023-02-21T11:58:12;100697.88;;;15.08;100.00
54808;BME280;40708;50.364;7.550;2023-02-21T12:00:54;100687.41;;;14.93;100.00
54808;BME280;40708;50.364;7.550;2023-02-21T12:07:16;100676.44;;;15.13;100.00
54808;BME280;40708;50.364;7.550;2023-02-21T12:10:23;100683.00;;;14.89;100.00
54808;BME280;40708;50.364;7.550;2023-02-21T12:21:29;100659.53;;;15.69;100.00
54808;BME280;40708;50.364;7.550;2023-02-21T12:27:02;100649.91;;;16.07;100.00
54808;BME280;40708;50.364;7.550;2023-02-21T12:30:00;100649.06;;;16.51;100.00
54808;BME280;40708;50.364;7.550;2023-02-21T12:32:49;100647.03;;;16.20;100.00
54808;BME280;40708;50.364;7.550;2023-02-21T12:35:32;100634.22;;;16.35;100.00
54808;BME280;40708;50.364;7.550;2023-02-21T12:43:50;100620.34;;;17.73;100.00
54808;BME280;40708;50.364;7.550;2023-02-21T12:49:07;100620.44;;;17.33;100.00
54808;BME280;40708;50.364;7.550;2023-02-21T12:51:41;100617.81;;;17.30;100.00
54808;BME280;40708;50.364;7.550;2023-02-21T12:54:15;100612.03;;;17.11;100.00
54808;BME280;40708;50.364;7.550;2023-02-21T12:56:52;100606.72;;;17.08;100.00
54808;BME280;40708;50.364;7.550;2023-02-21T12:59:31;100602.06;;;17.53;100.00
54808;BME280;40708;50.364;7.550;2023-02-21T13:02:15;100589.03;;;18.06;100.00
54808;BME280;40708;50.364;7.550;2023-02-21T13:04:52;100587.84;;;17.83;100.00
54808;BME280;40708;50.364;7.550;2023-02-21T13:07:27;100573.56;;;18.15;100.00
54808;BME280;40708;50.364;7.550;2023-02-21T13:10:04;100583.81;;;18.01;100.00
54808;BME280;40708;50.364;7.550;2023-02-21T13:12:39;100580.63;;;17.85;100.00
54808;BME280;40708;50.364;7.550;2023-02-21T13:15:16;100578.91;;;17.48;100.00
54808;BME280;40708;50.364;7.550;2023-02-21T13:17:42;100571.41;;;18.28;100.00
54808;BME280;40708;50.364;7.550;2023-02-21T13:20:19;100554.75;;;19.03;100.00
54808;BME280;40708;50.364;7.550;2023-02-21T13:26:06;100554.97;;;18.69;100.00
54808;BME280;40708;50.364;7.550;2023-02-21T13:28:36;100556.34;;;18.22;100.00
54808;BME280;40708;50.364;7.550;2023-02-21T13:31:05;100542.28;;;18.73;100.00
54808;BME280;40708;50.364;7.550;2023-02-21T13:33:40;100549.94;;;18.57;100.00
54808;BME280;40708;50.364;7.550;2023-02-21T13:38:57;100528.03;;;18.40;100.00
54808;BME280;40708;50.364;7.550;2023-02-21T13:41:26;100534.41;;;18.94;100.00
54808;BME280;40708;50.364;7.550;2023-02-21T13:43:53;100530.34;;;18.83;100.00
54808;BME280;40708;50.364;7.550;2023-02-21T13:57:47;100509.66;;;19.64;100.00
54808;BME280;40708;50.364;7.550;2023-02-21T14:10:51;100505.41;;;18.49;100.00
54808;BME280;40708;50.364;7.550;2023-02-21T14:13:32;100500.31;;;18.96;100.00
54808;BME280;40708;50.364;7.550;2023-02-21T14:21:07;100493.91;;;18.14;100.00
54808;BME280;40708;50.364;7.550;2023-02-21T14:26:05;100482.34;;;18.97;100.00
54808;BME280;40708;50.364;7.550;2023-02-21T14:28:49;100477.97;;;19.21;100.00
54808;BME280;40708;50.364;7.550;2023-02-21T14:34:39;100480.09;;;19.37;100.00
54808;BME280;40708;50.364;7.550;2023-02-21T14:37:42;100472.69;;;19.18;100.00
54808;BME280;40708;50.364;7.550;2023-02-21T14:42:53;100474.56;;;18.32;100.00
54808;BME280;40708;50.364;7.550;2023-02-21T15:02:17;100460.78;;;18.43;100.00
54808;BME280;40708;50.364;7.550;2023-02-21T15:05:06;100461.00;;;18.66;100.00
54808;BME280;40708;50.364;7.550;2023-02-21T15:10:28;100459.22;;;18.36;100.00
54808;BME280;40708;50.364;7.550;2023-02-21T15:12:56;100449.81;;;18.23;100.00
54808;BME280;40708;50.364;7.550;2023-02-21T15:15:30;100450.03;;;18.15;100.00
54808;BME280;40708;50.364;7.550;2023-02-21T15:18:09;100456.09;;;18.22;100.00
54808;BME280;40708;50.364;7.550;2023-02-21T15:20:40;100454.72;;;18.09;100.00
54808;BME280;40708;50.364;7.550;2023-02-21T15:23:19;100460.41;;;17.98;100.00